createdAt,value
2023-02-24T00:00:55.906Z,2.67
2023-02-24T00:05:04.042Z,2.38
2023-02-24T00:08:44.446Z,2.11
2023-02-24T00:12:55.361Z,2.05
2023-02-24T00:17:03.483Z,3.54
2023-02-24T00:20:55.185Z,3.71
2023-02-24T00:25:03.416Z,3.28
2023-02-24T00:29:11.554Z,2.80
2023-02-24T00:33:10.553Z,2.40
2023-02-24T00:37:18.666Z,2.09
2023-02-24T00:41:26.726Z,2.08
2023-02-24T00:45:15.691Z,3.50
2023-02-24T00:49:23.821Z,3.54
2023-02-24T00:53:31.961Z,3.05
2023-02-24T00:57:23.682Z,2.59
2023-02-24T01:01:11.781Z,2.22
2023-02-24T01:05:12.960Z,1.92
2023-02-24T01:08:48.446Z,1.87
2023-02-24T01:12:27.750Z,3.04
2023-02-24T01:16:18.846Z,3.41
2023-02-24T01:20:15.672Z,3.05
2023-02-24T01:24:23.857Z,2.60
2023-02-24T01:28:14.807Z,2.25
2023-02-24T01:32:17.941Z,1.94
2023-02-24T01:36:26.326Z,1.95
2023-02-24T01:40:34.552Z,3.45
2023-02-24T01:44:59.012Z,3.49
2023-02-24T01:48:33.259Z,3.05
2023-02-24T01:52:53.436Z,2.65
2023-02-24T01:56:41.570Z,2.27
2023-02-24T02:00:58.920Z,2.17
2023-02-24T02:04:52.701Z,3.48
2023-02-24T02:08:54.585Z,3.53
2023-02-24T02:12:52.466Z,3.10
2023-02-24T02:16:59.027Z,2.65
2023-02-24T02:21:05.610Z,2.23
2023-02-24T02:25:16.008Z,1.92
2023-02-24T02:29:06.200Z,1.86
2023-02-24T02:33:24.674Z,3.29
2023-02-24T02:37:41.305Z,3.39
2023-02-24T02:41:40.854Z,2.91
2023-02-24T02:45:31.193Z,2.46
2023-02-24T02:49:51.470Z,2.09
2023-02-24T02:53:59.617Z,1.76
2023-02-24T02:57:54.852Z,1.75
2023-02-24T03:01:56.259Z,3.26
2023-02-24T03:06:10.176Z,3.38
2023-02-24T03:09:47.634Z,2.97
2023-02-24T03:13:35.552Z,2.56
2023-02-24T03:17:14.488Z,2.16
2023-02-24T03:21:12.564Z,1.92
2023-02-24T03:25:11.362Z,1.98
2023-02-24T03:29:13.351Z,3.41
2023-02-24T03:33:01.251Z,3.48
2023-02-24T03:36:44.540Z,3.09
2023-02-24T03:40:55.590Z,2.65
2023-02-24T03:44:46.213Z,2.27
2023-02-24T03:48:37.710Z,1.99
2023-02-24T03:52:38.297Z,1.95
2023-02-24T03:56:37.679Z,3.39
2023-02-24T04:00:48.887Z,3.51
2023-02-24T04:05:12.347Z,3.07
2023-02-24T04:09:08.900Z,2.50
2023-02-24T04:13:33.705Z,2.14
2023-02-24T04:17:34.670Z,1.81
2023-02-24T04:21:42.765Z,1.82
2023-02-24T04:25:41.859Z,3.27
2023-02-24T04:29:36.264Z,3.33
2023-02-24T04:33:44.604Z,2.85
2023-02-24T04:36:55.179Z,2.42
2023-02-24T04:40:36.647Z,2.15
2023-02-24T04:44:33.834Z,1.84
2023-02-24T04:48:14.963Z,1.76
2023-02-24T04:52:15.294Z,3.23
2023-02-24T04:56:23.776Z,3.44
2023-02-24T05:00:14.486Z,3.03
2023-02-24T05:03:33.549Z,2.54
2023-02-24T05:06:35.560Z,2.24
2023-02-24T05:10:08.396Z,2.01
2023-02-24T05:13:19.706Z,2.98
2023-02-24T05:17:28.823Z,3.35
2023-02-24T05:21:29.814Z,3.00
2023-02-24T05:25:28.910Z,2.55
2023-02-24T05:29:24.569Z,2.10
2023-02-24T05:33:13.546Z,2.04
2023-02-24T05:37:03.339Z,3.38
2023-02-24T05:41:11.786Z,3.52
2023-02-24T05:44:55.641Z,3.13
2023-02-24T05:48:26.470Z,2.75
2023-02-24T05:51:52.322Z,2.47
2023-02-24T05:55:17.317Z,2.36
2023-02-24T05:58:07.731Z,3.53
2023-02-24T06:01:07.110Z,3.95
2023-02-24T06:05:12.836Z,3.70
2023-02-24T06:09:02.433Z,3.21
2023-02-24T06:12:01.136Z,2.94
2023-02-24T06:15:16.500Z,2.73
2023-02-24T06:18:12.879Z,2.57
2023-02-24T06:21:12.544Z,3.58
2023-02-24T06:24:18.714Z,4.17
2023-02-24T06:27:10.480Z,3.97
2023-02-24T06:30:22.036Z,3.71
2023-02-24T06:33:19.947Z,3.50
2023-02-24T06:36:14.790Z,3.36
2023-02-24T06:38:52.673Z,3.15
2023-02-24T06:41:42.759Z,3.90
2023-02-24T06:44:12.052Z,4.50
2023-02-24T06:47:19.235Z,4.57
2023-02-24T06:49:49.552Z,4.42
2023-02-24T06:52:19.313Z,4.13
2023-02-24T06:55:26.491Z,3.88
2023-02-24T06:58:19.338Z,3.67
2023-02-24T07:01:17.119Z,3.49
2023-02-24T07:04:03.585Z,4.30
2023-02-24T07:06:46.234Z,4.80
2023-02-24T07:09:17.353Z,4.82
2023-02-24T07:11:56.951Z,4.64
2023-02-24T07:14:50.577Z,4.36
2023-02-24T07:17:23.464Z,4.14
2023-02-24T07:20:22.273Z,3.95
2023-02-24T07:23:50.142Z,4.53
2023-02-24T07:26:25.335Z,5.19
2023-02-24T07:29:04.554Z,5.12
2023-02-24T07:31:44.832Z,4.90
2023-02-24T07:34:15.088Z,4.72
2023-02-24T07:36:51.004Z,4.59
2023-02-24T07:39:24.139Z,4.30
2023-02-24T07:41:57.272Z,4.17
2023-02-24T07:44:39.679Z,4.76
2023-02-24T07:48:01.667Z,5.31
2023-02-24T07:50:59.562Z,5.16
2023-02-24T07:53:30.046Z,4.81
2023-02-24T07:56:27.869Z,4.67
2023-02-24T07:59:13.537Z,4.33
2023-02-24T08:02:29.312Z,4.09
2023-02-24T08:05:26.328Z,4.72
2023-02-24T08:08:03.192Z,5.27
2023-02-24T08:10:42.877Z,5.20
2023-02-24T08:13:12.092Z,4.92
2023-02-24T08:16:03.056Z,4.69
2023-02-24T08:19:03.471Z,4.46
2023-02-24T08:21:38.285Z,4.43
2023-02-24T08:24:34.399Z,5.00
2023-02-24T08:27:30.577Z,5.79
2023-02-24T08:29:59.796Z,5.88
2023-02-24T08:32:34.082Z,5.71
2023-02-24T08:35:25.668Z,5.50
2023-02-24T08:38:31.724Z,5.43
2023-02-24T08:41:29.220Z,5.27
2023-02-24T08:44:03.062Z,5.17
2023-02-24T08:46:50.285Z,5.85
2023-02-24T08:49:49.557Z,6.48
2023-02-24T08:52:27.438Z,6.43
2023-02-24T08:55:14.841Z,6.22
2023-02-24T08:57:53.600Z,6.03
2023-02-24T09:00:41.196Z,5.78
2023-02-24T09:03:16.332Z,5.57
2023-02-24T09:06:06.245Z,5.48
2023-02-24T09:08:34.037Z,5.40
2023-02-24T09:11:10.182Z,5.97
2023-02-24T09:13:51.813Z,6.65
2023-02-24T09:16:35.623Z,6.77
2023-02-24T09:19:36.286Z,6.59
2023-02-24T09:22:27.423Z,6.44
2023-02-24T09:25:18.206Z,6.32
2023-02-24T09:28:17.536Z,6.22
2023-02-24T09:30:55.307Z,6.03
2023-02-24T09:33:43.247Z,5.90
2023-02-24T09:36:30.466Z,5.85
2023-02-24T09:39:21.765Z,6.69
2023-02-24T09:42:10.701Z,7.18
2023-02-24T09:45:03.000Z,7.29
2023-02-24T09:47:55.400Z,7.11
2023-02-24T09:51:05.152Z,6.90
2023-02-24T09:53:52.557Z,6.71
2023-02-24T09:57:08.351Z,6.55
2023-02-24T10:00:33.671Z,6.35
2023-02-24T10:04:18.332Z,6.28
2023-02-24T10:07:30.569Z,6.42
2023-02-24T10:10:25.651Z,7.41
2023-02-24T10:13:47.533Z,7.71
2023-02-24T10:16:24.573Z,7.54
2023-02-24T10:19:30.188Z,7.38
2023-02-24T10:22:40.381Z,7.20
2023-02-24T10:25:54.096Z,7.06
2023-02-24T10:28:53.151Z,7.02
2023-02-24T10:31:30.818Z,6.94
2023-02-24T10:34:06.386Z,6.88
2023-02-24T10:36:51.910Z,7.52
2023-02-24T10:39:52.039Z,8.31
2023-02-24T10:42:27.319Z,8.42
2023-02-24T10:45:17.195Z,8.36
2023-02-24T10:48:06.365Z,8.28
2023-02-24T10:50:55.401Z,8.16
2023-02-24T10:53:47.178Z,8.06
2023-02-24T10:56:30.352Z,7.90
2023-02-24T10:59:27.029Z,7.86
2023-02-24T11:02:48.882Z,7.86
2023-02-24T11:05:37.246Z,9.02
2023-02-24T11:08:41.644Z,9.73
2023-02-24T11:12:00.793Z,9.81
2023-02-24T11:15:06.555Z,9.72
2023-02-24T11:17:58.950Z,9.73
2023-02-24T11:20:53.348Z,9.67
2023-02-24T11:24:10.498Z,9.60
2023-02-24T11:26:46.862Z,9.48
2023-02-24T11:30:06.339Z,9.40
2023-02-24T11:33:25.055Z,9.42
2023-02-24T11:36:44.455Z,9.51
2023-02-24T11:39:50.040Z,9.57
2023-02-24T11:43:16.596Z,9.64
2023-02-24T11:45:46.711Z,9.64
2023-02-24T11:48:41.483Z,9.67
2023-02-24T11:51:52.764Z,9.67
2023-02-24T11:54:42.245Z,9.57
2023-02-24T11:57:38.472Z,9.47
2023-02-24T12:00:32.798Z,10.33
2023-02-24T12:03:13.070Z,10.82
2023-02-24T12:05:54.074Z,10.73
2023-02-24T12:08:32.181Z,10.49
2023-02-24T12:11:42.216Z,10.32
2023-02-24T12:14:32.184Z,10.14
2023-02-24T12:17:27.146Z,9.96
2023-02-24T12:20:17.221Z,9.83
2023-02-24T12:22:59.355Z,9.86
2023-02-24T12:26:16.882Z,9.93
2023-02-24T12:28:58.941Z,10.07
2023-02-24T12:31:55.083Z,10.10
2023-02-24T12:34:57.076Z,11.06
2023-02-24T12:37:51.112Z,11.88
2023-02-24T12:40:47.012Z,11.94
2023-02-24T12:44:02.550Z,12.03
2023-02-24T12:46:34.821Z,11.91
2023-02-24T12:49:27.558Z,11.73
2023-02-24T12:51:58.075Z,11.68
2023-02-24T12:55:03.128Z,11.54
2023-02-24T12:57:52.658Z,11.43
2023-02-24T13:00:29.921Z,11.41
2023-02-24T13:03:08.705Z,11.36
2023-02-24T13:06:02.692Z,11.27
2023-02-24T13:09:11.012Z,11.24
2023-02-24T13:12:26.103Z,11.21
2023-02-24T13:15:34.304Z,10.99
2023-02-24T13:18:17.094Z,10.93
2023-02-24T13:21:29.565Z,10.81
2023-02-24T13:24:37.753Z,10.77
2023-02-24T13:27:24.169Z,10.82
2023-02-24T13:29:57.667Z,10.81
2023-02-24T13:32:36.584Z,10.78
2023-02-24T13:35:17.199Z,10.80
2023-02-24T13:37:47.941Z,10.77
2023-02-24T13:40:29.202Z,10.79
2023-02-24T13:42:56.561Z,10.90
2023-02-24T13:45:29.522Z,11.04
2023-02-24T13:48:01.676Z,11.12
2023-02-24T13:50:48.152Z,11.22
2023-02-24T13:53:34.099Z,11.31
2023-02-24T13:56:11.552Z,11.41
2023-02-24T13:58:57.454Z,11.46
2023-02-24T14:01:29.885Z,11.41
2023-02-24T14:04:06.839Z,11.26
2023-02-24T14:06:36.973Z,11.05
2023-02-24T14:09:07.631Z,10.84
2023-02-24T14:11:38.014Z,10.62
2023-02-24T14:14:05.274Z,10.50
2023-02-24T14:16:39.855Z,10.37
2023-02-24T14:19:27.818Z,10.90
2023-02-24T14:22:30.687Z,11.63
2023-02-24T14:25:40.858Z,11.70
2023-02-24T14:29:05.194Z,11.49
2023-02-24T14:31:40.175Z,11.23
2023-02-24T14:34:09.201Z,10.99
2023-02-24T14:36:39.525Z,10.80
2023-02-24T14:39:27.319Z,10.65
2023-02-24T14:42:26.293Z,10.44
2023-02-24T14:45:03.175Z,10.29
2023-02-24T14:47:43.372Z,10.13
2023-02-24T14:50:18.646Z,10.02
2023-02-24T14:52:53.346Z,9.88
2023-02-24T14:55:23.492Z,10.46
2023-02-24T14:58:02.729Z,11.14
2023-02-24T15:00:33.295Z,11.21
2023-02-24T15:03:13.684Z,11.04
2023-02-24T15:05:44.970Z,10.80
2023-02-24T15:08:38.844Z,10.58
2023-02-24T15:11:21.156Z,10.35
2023-02-24T15:13:50.707Z,10.16
2023-02-24T15:16:45.541Z,10.00
2023-02-24T15:19:27.380Z,9.82
2023-02-24T15:21:54.848Z,9.69
2023-02-24T15:24:33.841Z,9.58
2023-02-24T15:27:15.580Z,10.20
2023-02-24T15:29:44.271Z,10.86
2023-02-24T15:32:17.793Z,10.94
2023-02-24T15:34:45.837Z,10.79
2023-02-24T15:37:26.347Z,10.58
2023-02-24T15:40:04.402Z,10.32
2023-02-24T15:42:33.910Z,10.11
2023-02-24T15:45:07.708Z,9.95
2023-02-24T15:47:42.997Z,9.80
2023-02-24T15:50:12.412Z,9.66
2023-02-24T15:52:43.805Z,9.52
2023-02-24T15:55:19.410Z,10.11
2023-02-24T15:57:46.678Z,10.79
2023-02-24T16:00:21.562Z,10.90
2023-02-24T16:02:52.074Z,10.77
2023-02-24T16:05:22.482Z,10.55
2023-02-24T16:07:49.752Z,10.33
2023-02-24T16:10:26.948Z,10.12
2023-02-24T16:13:00.823Z,9.93
2023-02-24T16:15:32.313Z,9.77
2023-02-24T16:18:02.703Z,9.61
2023-02-24T16:20:56.802Z,9.46
2023-02-24T16:23:27.663Z,9.36
2023-02-24T16:25:59.083Z,9.93
2023-02-24T16:28:26.799Z,10.59
2023-02-24T16:30:58.141Z,10.73
2023-02-24T16:33:25.762Z,10.61
2023-02-24T16:35:55.311Z,10.38
2023-02-24T16:38:36.538Z,10.14
2023-02-24T16:41:06.741Z,9.87
2023-02-24T16:43:37.765Z,9.65
2023-02-24T16:46:06.479Z,9.44
2023-02-24T16:48:37.322Z,9.27
2023-02-24T16:51:05.549Z,9.11
2023-02-24T16:53:34.133Z,8.96
2023-02-24T16:56:02.048Z,8.80
2023-02-24T16:58:33.820Z,9.34
2023-02-24T17:01:02.854Z,9.98
2023-02-24T17:03:51.192Z,10.08
2023-02-24T17:06:20.178Z,9.88
2023-02-24T17:08:49.167Z,9.64
2023-02-24T17:11:36.312Z,9.39
2023-02-24T17:14:03.840Z,9.13
2023-02-24T17:16:40.184Z,8.91
2023-02-24T17:19:08.569Z,8.70
2023-02-24T17:21:35.837Z,8.50
2023-02-24T17:24:06.195Z,8.29
2023-02-24T17:26:35.191Z,8.08
2023-02-24T17:29:02.863Z,8.55
2023-02-24T17:31:31.803Z,9.17
2023-02-24T17:34:06.208Z,9.27
2023-02-24T17:36:33.791Z,9.10
2023-02-24T17:39:01.551Z,8.82
2023-02-24T17:41:29.532Z,8.52
2023-02-24T17:43:56.847Z,8.28
2023-02-24T17:46:24.074Z,8.09
2023-02-24T17:48:52.335Z,7.91
2023-02-24T17:51:19.557Z,7.74
2023-02-24T17:53:46.697Z,8.21
2023-02-24T17:56:13.743Z,8.82
2023-02-24T17:58:41.353Z,8.87
2023-02-24T18:01:08.243Z,8.68
2023-02-24T18:03:36.357Z,8.36
2023-02-24T18:06:11.292Z,8.05
2023-02-24T18:08:41.196Z,7.73
2023-02-24T18:11:09.949Z,7.46
2023-02-24T18:13:39.655Z,7.22
2023-02-24T18:16:11.343Z,7.01
2023-02-24T18:18:38.448Z,7.44
2023-02-24T18:21:08.908Z,8.02
2023-02-24T18:23:36.480Z,8.10
2023-02-24T18:26:05.238Z,7.94
2023-02-24T18:28:35.274Z,7.63
2023-02-24T18:31:16.477Z,7.38
2023-02-24T18:33:44.605Z,7.19
2023-02-24T18:36:12.163Z,7.02
2023-02-24T18:38:41.780Z,6.84
2023-02-24T18:41:14.398Z,7.34
2023-02-24T18:43:45.802Z,8.09
2023-02-24T18:46:14.850Z,8.29
2023-02-24T18:48:44.656Z,8.20
2023-02-24T18:51:12.794Z,8.04
2023-02-24T18:53:42.079Z,7.86
2023-02-24T18:56:11.475Z,7.68
2023-02-24T18:58:40.999Z,7.55
2023-02-24T19:01:17.305Z,7.41
2023-02-24T19:03:44.581Z,7.99
2023-02-24T19:06:12.900Z,8.65
2023-02-24T19:08:40.641Z,8.79
2023-02-24T19:11:13.925Z,8.65
2023-02-24T19:13:41.794Z,8.44
2023-02-24T19:16:09.534Z,8.26
2023-02-24T19:18:37.479Z,8.10
2023-02-24T19:21:06.623Z,7.89
2023-02-24T19:23:36.827Z,7.72
2023-02-24T19:26:07.585Z,7.59
2023-02-24T19:28:37.794Z,8.13
2023-02-24T19:31:16.848Z,8.81
2023-02-24T19:33:44.347Z,8.94
2023-02-24T19:36:11.923Z,8.78
2023-02-24T19:38:41.021Z,8.53
2023-02-24T19:41:08.298Z,8.26
2023-02-24T19:43:38.757Z,8.02
2023-02-24T19:46:07.057Z,7.80
2023-02-24T19:48:35.027Z,7.60
2023-02-24T19:51:12.524Z,7.40
2023-02-24T19:53:42.904Z,7.91
2023-02-24T19:56:12.528Z,8.46
2023-02-24T19:58:39.811Z,8.45
2023-02-24T20:01:13.190Z,8.23
2023-02-24T20:03:42.225Z,7.93
2023-02-24T20:06:20.011Z,7.59
2023-02-24T20:08:50.283Z,7.24
2023-02-24T20:11:20.510Z,6.90
2023-02-24T20:16:11.834Z,6.30
2023-02-24T20:18:42.026Z,6.21
2023-02-24T20:21:12.762Z,6.70
2023-02-24T20:23:40.183Z,7.35
2023-02-24T20:26:07.530Z,7.45
2023-02-24T20:28:39.150Z,7.30
2023-02-24T20:31:08.370Z,7.05
2023-02-24T20:33:36.171Z,6.78
2023-02-24T20:36:20.585Z,6.52
2023-02-24T20:38:50.619Z,6.31
2023-02-24T20:41:22.843Z,6.10
2023-02-24T20:43:51.795Z,6.64
2023-02-24T20:46:32.854Z,7.30
2023-02-24T20:49:09.384Z,7.37
2023-02-24T20:51:39.893Z,7.18
2023-02-24T20:54:12.213Z,6.96
2023-02-24T20:56:54.563Z,6.66
2023-02-24T20:59:22.244Z,6.41
2023-02-24T21:01:58.469Z,6.25
2023-02-24T21:04:25.836Z,6.07
2023-02-24T21:06:56.925Z,6.62
2023-02-24T21:09:29.759Z,7.27
2023-02-24T21:11:57.081Z,7.35
2023-02-24T21:14:24.379Z,7.15
2023-02-24T21:16:55.783Z,6.88
2023-02-24T21:19:23.700Z,6.60
2023-02-24T21:21:55.409Z,6.33
2023-02-24T21:24:26.750Z,6.08
2023-02-24T21:26:54.708Z,6.52
2023-02-24T21:29:21.800Z,7.11
2023-02-24T21:31:51.606Z,7.18
2023-02-24T21:34:19.005Z,6.94
2023-02-24T21:36:49.546Z,6.65
2023-02-24T21:39:18.147Z,6.36
2023-02-24T21:41:48.038Z,6.09
2023-02-24T21:44:26.934Z,5.81
2023-02-24T21:46:57.332Z,6.30
2023-02-24T21:49:26.681Z,6.79
2023-02-24T21:51:57.256Z,6.77
2023-02-24T21:54:26.575Z,6.49
2023-02-24T21:56:56.619Z,6.17
2023-02-24T21:59:39.456Z,5.86
2023-02-24T22:02:06.911Z,5.50
2023-02-24T22:04:34.191Z,5.21
2023-02-24T22:07:03.977Z,5.62
2023-02-24T22:09:31.696Z,6.23
2023-02-24T22:12:04.508Z,6.25
2023-02-24T22:14:34.019Z,6.01
2023-02-24T22:17:03.952Z,5.70
2023-02-24T22:19:37.461Z,5.39
2023-02-24T22:22:05.227Z,5.10
2023-02-24T22:24:32.703Z,5.48
2023-02-24T22:27:00.261Z,6.04
2023-02-24T22:29:30.083Z,6.10
2023-02-24T22:32:01.233Z,5.88
2023-02-24T22:34:34.933Z,5.55
2023-02-24T22:37:06.391Z,5.20
2023-02-24T22:39:38.352Z,4.92
2023-02-24T22:42:07.536Z,4.68
2023-02-24T22:44:40.770Z,5.15
2023-02-24T22:47:11.521Z,5.71
2023-02-24T22:49:42.803Z,5.73
2023-02-24T22:52:11.681Z,5.54
2023-02-24T22:54:44.598Z,5.24
2023-02-24T22:57:12.643Z,4.94
2023-02-24T22:59:43.048Z,4.64
2023-02-24T23:02:12.912Z,5.02
2023-02-24T23:04:45.839Z,5.86
2023-02-24T23:07:13.125Z,6.08
2023-02-24T23:09:52.820Z,5.86
2023-02-24T23:12:26.989Z,5.53
2023-02-24T23:15:06.333Z,5.17
2023-02-24T23:17:37.760Z,4.89
2023-02-24T23:20:15.202Z,4.63
2023-02-24T23:22:52.507Z,5.08
2023-02-24T23:25:26.740Z,5.64
2023-02-24T23:28:39.738Z,5.62
2023-02-24T23:31:27.442Z,5.30
2023-02-24T23:34:25.335Z,5.04
2023-02-24T23:37:32.756Z,4.76
2023-02-24T23:40:08.420Z,4.57
2023-02-24T23:43:15.167Z,5.24
2023-02-24T23:47:02.954Z,6.01
2023-02-24T23:49:54.424Z,5.82
2023-02-24T23:52:28.023Z,5.50
2023-02-24T23:55:07.686Z,5.20
2023-02-24T23:57:35.280Z,4.95
